createdAt,value
2019-02-02T00:00:56.133Z,15.88
2019-02-02T00:03:26.134Z,21.15
2019-02-02T00:05:55.135Z,17.82
2019-02-02T00:08:23.904Z,16.97
2019-02-02T00:10:52.922Z,20.32
2019-02-02T00:13:22.040Z,14.65
2019-02-02T00:15:50.894Z,19.70
2019-02-02T00:18:19.774Z,20.55
2019-02-02T00:20:48.891Z,17.23
2019-02-02T00:23:17.758Z,16.67
2019-02-02T00:25:46.653Z,19.82
2019-02-02T00:28:15.654Z,19.92
2019-02-02T00:30:44.554Z,20.23
2019-02-02T00:33:13.533Z,22.60
2019-02-02T00:35:42.436Z,18.67
2019-02-02T00:38:11.414Z,16.60
2019-02-02T00:40:40.314Z,20.27
2019-02-02T00:43:09.407Z,16.25
2019-02-02T00:45:38.294Z,18.92
2019-02-02T00:48:08.315Z,18.85
2019-02-02T00:50:37.414Z,18.75
2019-02-02T00:53:06.287Z,21.50
2019-02-02T00:55:35.295Z,16.48
2019-02-02T00:58:04.493Z,17.20
2019-02-02T01:00:33.395Z,18.05
2019-02-02T01:03:02.273Z,15.08
2019-02-02T01:05:31.374Z,14.28
2019-02-02T01:08:00.254Z,17.62
2019-02-02T01:10:35.388Z,16.77
2019-02-02T01:13:04.594Z,15.38
2019-02-02T01:15:33.473Z,17.02
2019-02-02T01:18:02.730Z,15.53
2019-02-02T01:20:31.430Z,17.55
2019-02-02T01:23:01.760Z,18.02
2019-02-02T01:25:30.873Z,18.12
2019-02-02T01:28:05.267Z,18.48
2019-02-02T01:30:30.439Z,16.32
2019-02-02T01:32:59.663Z,15.72
2019-02-02T01:35:28.713Z,15.90
2019-02-02T01:38:06.957Z,16.80
2019-02-02T01:40:35.796Z,19.98
2019-02-02T01:43:05.814Z,19.37
2019-02-02T01:45:34.796Z,16.62
2019-02-02T01:48:03.581Z,18.75
2019-02-02T01:50:32.468Z,15.08
2019-02-02T01:53:01.576Z,18.30
2019-02-02T01:55:30.466Z,13.98
2019-02-02T01:57:59.270Z,15.08
2019-02-02T02:00:32.854Z,18.30
2019-02-02T02:03:01.632Z,17.32
2019-02-02T02:05:30.531Z,18.07
2019-02-02T02:07:59.816Z,18.48
2019-02-02T02:10:28.611Z,16.52
2019-02-02T02:12:57.511Z,20.95
2019-02-02T02:15:26.512Z,17.12
2019-02-02T02:17:55.401Z,21.23
2019-02-02T02:20:24.543Z,22.40
2019-02-02T02:22:53.791Z,17.12
2019-02-02T02:25:22.581Z,18.95
2019-02-02T02:27:51.471Z,22.67
2019-02-02T02:30:24.451Z,22.65
2019-02-02T02:32:53.656Z,18.37
2019-02-02T02:35:22.537Z,21.73
2019-02-02T02:37:51.655Z,25.02
2019-02-02T02:40:22.029Z,18.40
2019-02-02T02:42:51.067Z,20.35
2019-02-02T02:45:20.066Z,18.75
2019-02-02T02:47:48.890Z,22.95
2019-02-02T02:50:21.576Z,17.92
2019-02-02T02:52:50.521Z,18.40
2019-02-02T02:55:20.326Z,20.10
2019-02-02T02:57:49.101Z,21.73
2019-02-02T03:00:26.955Z,20.10
2019-02-02T03:02:55.806Z,19.52
2019-02-02T03:05:24.896Z,21.65
2019-02-02T03:07:54.606Z,22.52
2019-02-02T03:10:26.808Z,22.60
2019-02-02T03:12:55.838Z,21.52
2019-02-02T03:15:24.974Z,22.07
2019-02-02T03:17:53.873Z,20.68
2019-02-02T03:20:22.752Z,24.47
2019-02-02T03:22:51.841Z,22.98
2019-02-02T03:25:27.492Z,19.27
2019-02-02T03:27:56.694Z,23.20
2019-02-02T03:30:25.606Z,18.50
2019-02-02T03:32:54.573Z,22.07
2019-02-02T03:35:24.326Z,22.65
2019-02-02T03:37:53.186Z,22.27
2019-02-02T03:40:23.347Z,23.85
2019-02-02T03:42:52.391Z,22.07
2019-02-02T03:45:25.886Z,20.35
2019-02-02T03:47:54.976Z,23.07
2019-02-02T03:50:23.770Z,21.73
2019-02-02T03:52:52.664Z,22.25
2019-02-02T03:55:21.450Z,22.87
2019-02-02T03:57:50.226Z,22.45
2019-02-02T04:00:20.766Z,23.77
2019-02-02T04:02:49.656Z,23.57
2019-02-02T04:05:20.609Z,27.25
2019-02-02T04:07:49.587Z,21.85
2019-02-02T04:10:18.380Z,28.30
2019-02-02T04:12:47.271Z,21.62
2019-02-02T04:15:17.719Z,34.38
2019-02-02T04:17:47.706Z,25.97
2019-02-02T04:20:18.778Z,22.98
2019-02-02T04:22:48.974Z,24.07
2019-02-02T04:25:20.128Z,22.27
2019-02-02T04:27:49.311Z,27.77
2019-02-02T04:30:21.172Z,26.10
2019-02-02T04:32:50.141Z,25.92
2019-02-02T04:35:19.841Z,25.30
2019-02-02T04:37:51.121Z,26.42
2019-02-02T04:40:20.012Z,24.63
2019-02-02T04:42:49.001Z,24.18
2019-02-02T04:45:18.406Z,25.10
2019-02-02T04:47:47.169Z,24.35
2019-02-02T04:50:20.826Z,23.52
2019-02-02T04:52:49.676Z,28.32
2019-02-02T04:55:19.486Z,28.12
2019-02-02T04:57:48.690Z,26.73
2019-02-02T05:00:23.004Z,27.87
2019-02-02T05:02:52.123Z,29.82
2019-02-02T05:05:20.888Z,27.30
2019-02-02T05:07:49.803Z,28.80
2019-02-02T05:10:20.896Z,27.07
2019-02-02T05:12:49.756Z,26.33
2019-02-02T05:15:18.601Z,33.13
2019-02-02T05:17:47.496Z,23.02
2019-02-02T05:20:17.901Z,32.13
2019-02-02T05:22:46.601Z,26.68
2019-02-02T05:25:15.601Z,23.42
2019-02-02T05:27:44.385Z,27.32
2019-02-02T05:30:18.511Z,30.40
2019-02-02T05:32:47.191Z,25.90
2019-02-02T05:35:15.872Z,27.35
2019-02-02T05:37:44.771Z,30.77
2019-02-02T05:40:18.824Z,27.25
2019-02-02T05:42:47.568Z,32.23
2019-02-02T05:45:17.977Z,26.57
2019-02-02T05:47:46.871Z,27.75
2019-02-02T05:50:20.598Z,27.07
2019-02-02T05:52:49.471Z,27.45
2019-02-02T05:55:19.736Z,30.35
2019-02-02T05:57:48.710Z,25.52
2019-02-02T06:00:34.172Z,25.57
2019-02-02T06:03:03.070Z,29.67
2019-02-02T06:05:31.854Z,25.12
2019-02-02T06:08:00.607Z,29.85
2019-02-02T06:10:29.317Z,29.98
2019-02-02T06:12:58.108Z,31.00
2019-02-02T06:15:28.795Z,25.30
2019-02-02T06:17:57.536Z,29.82
2019-02-02T06:20:26.445Z,26.27
2019-02-02T06:22:55.102Z,32.90
2019-02-02T06:25:23.900Z,30.40
2019-02-02T06:27:52.782Z,27.60
2019-02-02T06:30:23.451Z,28.80
2019-02-02T06:32:52.201Z,27.35
2019-02-02T06:35:20.882Z,27.58
2019-02-02T06:37:49.771Z,29.87
2019-02-02T06:40:18.674Z,25.25
2019-02-02T06:42:47.667Z,27.22
2019-02-02T06:45:22.603Z,25.85
2019-02-02T06:47:51.496Z,24.50
2019-02-02T06:50:20.382Z,28.98
2019-02-02T06:52:49.472Z,24.63
2019-02-02T06:55:18.461Z,26.30
2019-02-02T06:57:47.351Z,29.87
2019-02-02T07:00:18.376Z,27.70
2019-02-02T07:02:47.181Z,26.57
2019-02-02T07:05:16.072Z,26.50
2019-02-02T07:07:45.071Z,29.90
2019-02-02T07:10:18.961Z,33.33
2019-02-02T07:12:47.861Z,27.50
2019-02-02T07:15:18.988Z,30.45
2019-02-02T07:17:47.801Z,29.30
2019-02-02T07:20:16.571Z,26.60
2019-02-02T07:22:45.686Z,31.23
2019-02-02T07:25:14.461Z,29.10
2019-02-02T07:27:43.363Z,24.05
2019-02-02T07:30:14.711Z,24.65
2019-02-02T07:32:43.705Z,33.05
2019-02-02T07:35:13.307Z,32.67
2019-02-02T07:37:42.300Z,28.80
2019-02-02T07:40:13.173Z,26.02
2019-02-02T07:42:41.921Z,33.05
2019-02-02T07:45:13.466Z,25.52
2019-02-02T07:47:42.480Z,28.95
2019-02-02T07:50:14.031Z,28.62
2019-02-02T07:52:43.314Z,28.02
2019-02-02T07:55:20.103Z,33.25
2019-02-02T07:57:49.096Z,28.20
2019-02-02T08:00:20.847Z,31.75
2019-02-02T08:02:49.759Z,29.20
2019-02-02T08:05:18.731Z,28.70
2019-02-02T08:07:47.416Z,30.60
2019-02-02T08:10:16.198Z,31.37
2019-02-02T08:12:45.201Z,32.05
2019-02-02T08:15:19.923Z,26.00
2019-02-02T08:17:48.927Z,29.82
2019-02-02T08:20:17.697Z,30.97
2019-02-02T08:22:46.597Z,29.63
2019-02-02T08:25:16.218Z,32.08
2019-02-02T08:27:45.098Z,28.20
2019-02-02T08:30:22.386Z,30.68
2019-02-02T08:32:51.178Z,33.60
2019-02-02T08:35:19.956Z,31.73
2019-02-02T08:37:48.741Z,34.53
2019-02-02T08:40:19.064Z,31.27
2019-02-02T08:42:48.167Z,34.88
2019-02-02T08:45:17.156Z,26.75
2019-02-02T08:47:45.945Z,29.98
2019-02-02T08:50:23.751Z,28.55
2019-02-02T08:52:52.532Z,31.80
2019-02-02T08:55:21.314Z,31.27
2019-02-02T08:57:50.115Z,29.42
2019-02-02T09:00:20.078Z,30.92
2019-02-02T09:02:48.972Z,28.55
2019-02-02T09:05:24.324Z,32.73
2019-02-02T09:07:53.208Z,34.85
2019-02-02T09:10:25.096Z,32.98
2019-02-02T09:12:53.946Z,31.77
2019-02-02T09:15:22.837Z,28.17
2019-02-02T09:17:51.739Z,30.55
2019-02-02T09:20:20.756Z,32.25
2019-02-02T09:22:49.553Z,31.35
2019-02-02T09:25:19.256Z,34.35
2019-02-02T09:27:48.157Z,30.12
2019-02-02T09:30:20.032Z,29.25
2019-02-02T09:32:48.791Z,30.92
2019-02-02T09:35:17.887Z,27.55
2019-02-02T09:37:46.724Z,29.70
2019-02-02T09:40:17.484Z,31.07
2019-02-02T09:42:46.407Z,29.18
2019-02-02T09:45:22.871Z,23.42
2019-02-02T09:47:53.013Z,27.87
2019-02-02T09:50:23.352Z,29.40
2019-02-02T09:52:56.387Z,30.20
2019-02-02T09:55:25.921Z,29.50
2019-02-02T09:57:59.042Z,31.30
2019-02-02T10:00:32.178Z,28.75
2019-02-02T10:03:01.082Z,31.60
2019-02-02T10:05:30.762Z,31.40
2019-02-02T10:07:59.701Z,33.48
2019-02-02T10:10:33.313Z,32.05
2019-02-02T10:13:02.103Z,28.98
2019-02-02T10:15:31.184Z,33.18
2019-02-02T10:18:02.311Z,28.15
2019-02-02T10:20:32.159Z,31.12
2019-02-02T10:23:02.373Z,33.83
2019-02-02T10:25:32.050Z,28.62
2019-02-02T10:28:00.942Z,29.60
2019-02-02T10:30:35.361Z,26.65
2019-02-02T10:33:04.156Z,27.37
2019-02-02T10:35:36.134Z,21.07
2019-02-02T10:38:05.312Z,28.80
2019-02-02T10:40:34.208Z,28.65
2019-02-02T10:43:03.092Z,33.18
2019-02-02T10:45:32.082Z,26.40
2019-02-02T10:48:00.863Z,32.35
2019-02-02T10:50:31.191Z,26.50
2019-02-02T10:53:00.181Z,30.15
2019-02-02T10:55:28.984Z,30.05
2019-02-02T10:57:57.766Z,32.28
2019-02-02T11:00:32.306Z,28.23
2019-02-02T11:03:02.605Z,28.12
2019-02-02T11:05:31.539Z,30.85
2019-02-02T11:08:00.728Z,26.50
2019-02-02T11:13:21.723Z,27.58
2019-02-02T11:15:52.105Z,28.80
2019-02-02T11:18:21.126Z,30.05
2019-02-02T11:20:54.231Z,31.10
2019-02-02T11:23:24.819Z,25.43
2019-02-02T11:25:54.470Z,33.88
2019-02-02T11:28:23.814Z,28.15
2019-02-02T11:30:53.286Z,28.87
2019-02-02T11:33:22.118Z,23.18
2019-02-02T11:35:51.075Z,25.40
2019-02-02T11:38:19.967Z,22.87
2019-02-02T11:40:48.848Z,25.52
2019-02-02T11:43:17.846Z,26.60
2019-02-02T11:45:46.753Z,25.90
2019-02-02T11:48:16.641Z,25.82
2019-02-02T11:50:45.541Z,29.30
2019-02-02T11:53:15.862Z,28.98
2019-02-02T11:55:51.111Z,27.20
2019-02-02T11:58:20.001Z,27.10
2019-02-02T12:00:48.891Z,27.32
2019-02-02T12:03:17.883Z,24.10
2019-02-02T12:05:46.671Z,24.67
2019-02-02T12:08:15.447Z,25.65
2019-02-02T12:10:44.341Z,21.82
2019-02-02T12:13:13.249Z,26.27
2019-02-02T12:15:42.121Z,26.33
2019-02-02T12:18:11.967Z,29.57
2019-02-02T12:20:41.037Z,28.07
2019-02-02T12:23:09.926Z,28.15
2019-02-02T12:25:39.017Z,31.33
2019-02-02T12:28:09.328Z,29.15
2019-02-02T12:30:38.544Z,29.27
2019-02-02T12:33:07.434Z,25.72
2019-02-02T12:35:36.316Z,28.55
2019-02-02T12:38:05.316Z,28.57
2019-02-02T12:40:34.302Z,28.62
2019-02-02T12:43:03.198Z,29.50
2019-02-02T12:45:35.057Z,27.52
2019-02-02T12:48:08.452Z,30.52
2019-02-02T12:50:37.342Z,27.05
2019-02-02T12:53:06.231Z,27.82
2019-02-02T12:55:35.221Z,29.87
2019-02-02T12:58:04.621Z,27.35
2019-02-02T13:00:33.521Z,29.50
2019-02-02T13:03:02.525Z,26.52
2019-02-02T13:05:32.941Z,29.18
2019-02-02T13:08:05.106Z,31.95
2019-02-02T13:10:33.586Z,28.35
2019-02-02T13:13:27.856Z,29.23
2019-02-02T13:15:56.466Z,31.87
2019-02-02T13:18:25.056Z,31.17
2019-02-02T13:20:53.697Z,32.35
2019-02-02T13:23:22.371Z,35.65
2019-02-02T13:25:51.072Z,25.57
2019-02-02T13:28:19.896Z,32.73
2019-02-02T13:30:48.581Z,30.57
2019-02-02T13:33:17.271Z,39.35
2019-02-02T13:35:46.082Z,30.95
2019-02-02T13:38:15.174Z,30.37
2019-02-02T13:40:43.872Z,34.48
2019-02-02T13:43:18.481Z,32.30
2019-02-02T13:45:47.363Z,34.90
2019-02-02T13:48:19.051Z,35.15
2019-02-02T13:50:47.922Z,36.53
2019-02-02T13:53:16.491Z,33.20
2019-02-02T13:55:45.121Z,32.70
2019-02-02T13:58:13.831Z,34.80
2019-02-02T14:00:42.536Z,38.98
2019-02-02T14:03:11.136Z,32.65
2019-02-02T14:05:39.926Z,30.72
2019-02-02T14:08:08.616Z,35.38
2019-02-02T14:10:37.306Z,32.08
2019-02-02T14:13:06.006Z,32.33
2019-02-02T14:15:34.678Z,32.83
2019-02-02T14:18:03.288Z,31.33
2019-02-02T14:20:32.036Z,30.57
2019-02-02T14:23:00.651Z,31.10
2019-02-02T14:25:30.629Z,28.42
2019-02-02T14:27:59.741Z,31.15
2019-02-02T14:30:28.296Z,35.88
2019-02-02T14:32:56.984Z,27.20
2019-02-02T14:35:27.456Z,27.32
2019-02-02T14:37:56.131Z,30.77
2019-02-02T14:40:25.102Z,31.57
2019-02-02T14:42:54.257Z,29.57
2019-02-02T14:45:28.069Z,29.67
2019-02-02T14:47:56.772Z,29.05
2019-02-02T14:50:25.621Z,30.20
2019-02-02T14:52:54.491Z,32.05
2019-02-02T14:55:25.873Z,28.35
2019-02-02T14:57:54.563Z,30.65
2019-02-02T15:00:25.249Z,30.95
2019-02-02T15:02:53.994Z,27.17
2019-02-02T15:05:22.818Z,31.87
2019-02-02T15:07:51.526Z,30.12
2019-02-02T15:10:21.107Z,32.42
2019-02-02T15:12:49.923Z,33.13
2019-02-02T15:15:18.694Z,30.57
2019-02-02T15:17:47.397Z,29.92
2019-02-02T15:20:24.132Z,26.45
2019-02-02T15:22:52.828Z,27.62
2019-02-02T15:25:21.406Z,30.80
2019-02-02T15:27:50.192Z,29.75
2019-02-02T15:30:23.876Z,31.87
2019-02-02T15:32:52.559Z,31.50
2019-02-02T15:35:21.383Z,35.68
2019-02-02T15:37:50.002Z,49.45
2019-02-02T15:40:19.384Z,34.25
2019-02-02T15:42:48.175Z,42.23
2019-02-02T15:45:25.417Z,34.90
2019-02-02T15:47:54.161Z,36.03
2019-02-02T15:50:22.791Z,34.67
2019-02-02T15:52:51.461Z,36.60
2019-02-02T15:55:24.751Z,34.60
2019-02-02T15:57:53.432Z,35.30
2019-02-02T16:00:24.241Z,34.80
2019-02-02T16:02:52.933Z,36.38
2019-02-02T16:05:21.926Z,36.90
2019-02-02T16:07:50.594Z,32.90
2019-02-02T16:10:25.219Z,36.20
2019-02-02T16:12:53.817Z,33.10
2019-02-02T16:15:22.486Z,29.02
2019-02-02T16:17:51.402Z,35.75
2019-02-02T16:20:25.111Z,33.35
2019-02-02T16:22:53.807Z,31.60
2019-02-02T16:25:22.531Z,38.70
2019-02-02T16:27:51.207Z,35.40
2019-02-02T16:30:24.651Z,39.20
2019-02-02T16:32:53.301Z,37.13
2019-02-02T16:35:21.991Z,33.25
2019-02-02T16:37:50.603Z,35.68
2019-02-02T16:40:21.787Z,38.20
2019-02-02T16:42:53.328Z,40.40
2019-02-02T16:45:22.930Z,37.28
2019-02-02T16:47:51.827Z,38.63
2019-02-02T16:50:20.491Z,37.10
2019-02-02T16:52:49.181Z,34.95
2019-02-02T16:55:21.081Z,38.45
2019-02-02T17:00:25.675Z,40.38
2019-02-02T17:02:54.337Z,46.18
2019-02-02T17:05:22.934Z,43.10
2019-02-02T17:07:51.866Z,35.40
2019-02-02T17:10:28.117Z,44.53
2019-02-02T17:12:56.876Z,35.98
2019-02-02T17:15:25.598Z,38.53
2019-02-02T17:17:54.299Z,30.85
2019-02-02T17:20:26.197Z,33.85
2019-02-02T17:22:54.814Z,39.98
2019-02-02T17:25:23.440Z,32.93
2019-02-02T17:27:52.301Z,33.28
2019-02-02T17:30:25.234Z,29.87
2019-02-02T17:32:56.363Z,29.35
2019-02-02T17:35:24.980Z,30.60
2019-02-02T17:37:53.668Z,38.28
2019-02-02T17:40:24.954Z,35.85
2019-02-02T17:42:53.660Z,27.80
2019-02-02T17:45:23.200Z,35.43
2019-02-02T17:47:52.041Z,31.37
2019-02-02T17:50:22.154Z,29.95
2019-02-02T17:52:50.995Z,32.25
2019-02-02T17:55:19.821Z,35.45
2019-02-02T17:57:48.526Z,33.55
2019-02-02T18:00:20.975Z,33.85
2019-02-02T18:02:49.711Z,31.42
2019-02-02T18:05:18.704Z,30.25
2019-02-02T18:07:47.383Z,26.52
2019-02-02T18:10:17.246Z,32.60
2019-02-02T18:12:45.875Z,29.00
2019-02-02T18:15:15.691Z,28.45
2019-02-02T18:17:44.546Z,33.00
2019-02-02T18:20:16.490Z,31.15
2019-02-02T18:22:45.206Z,36.50
2019-02-02T18:25:16.216Z,39.27
2019-02-02T18:27:44.900Z,39.70
2019-02-02T18:30:25.192Z,37.15
2019-02-02T18:32:53.899Z,32.23
2019-02-02T18:35:22.638Z,37.33
2019-02-02T18:37:51.480Z,38.02
2019-02-02T18:40:22.080Z,42.62
2019-02-02T18:42:50.788Z,29.57
2019-02-02T18:45:21.680Z,39.85
2019-02-02T18:47:50.315Z,38.38
2019-02-02T18:50:19.014Z,38.05
2019-02-02T18:52:49.460Z,37.30
2019-02-02T18:55:27.000Z,37.03
2019-02-02T18:57:55.768Z,35.17
2019-02-02T19:00:24.457Z,38.92
2019-02-02T19:02:53.167Z,40.70
2019-02-02T19:05:21.942Z,33.10
2019-02-02T19:07:50.566Z,43.13
2019-02-02T19:10:22.335Z,35.92
2019-02-02T19:12:51.152Z,39.25
2019-02-02T19:15:19.855Z,40.40
2019-02-02T19:17:50.095Z,40.55
2019-02-02T19:20:21.418Z,44.88
2019-02-02T19:22:50.206Z,46.42
2019-02-02T19:25:18.945Z,39.67
2019-02-02T19:27:47.909Z,35.90
2019-02-02T19:30:28.562Z,36.75
2019-02-02T19:32:57.322Z,40.92
2019-02-02T19:35:26.683Z,39.48
2019-02-02T19:37:55.290Z,38.45
2019-02-02T19:40:24.010Z,39.95
2019-02-02T19:42:52.690Z,39.90
2019-02-02T19:45:26.547Z,40.12
2019-02-02T19:47:55.393Z,47.70
2019-02-02T19:50:28.501Z,44.33
2019-02-02T19:52:57.312Z,44.73
2019-02-02T19:55:26.105Z,43.25
2019-02-02T19:57:54.871Z,40.90
2019-02-02T20:00:28.865Z,38.90
2019-02-02T20:02:57.838Z,42.35
2019-02-02T20:05:29.067Z,43.40
2019-02-02T20:07:56.824Z,43.17
2019-02-02T20:10:25.585Z,40.58
2019-02-02T20:12:54.266Z,44.00
2019-02-02T20:15:27.455Z,39.30
2019-02-02T20:18:08.654Z,41.02
2019-02-02T20:20:28.404Z,46.10
2019-02-02T20:22:57.360Z,51.25
2019-02-02T20:25:26.171Z,48.45
2019-02-02T20:27:54.946Z,47.17
2019-02-02T20:30:31.119Z,44.50
2019-02-02T20:32:59.827Z,46.90
2019-02-02T20:35:39.780Z,43.40
2019-02-02T20:37:59.307Z,44.40
2019-02-02T20:40:28.222Z,38.67
2019-02-02T20:42:56.922Z,39.25
2019-02-02T20:45:28.150Z,46.10
2019-02-02T20:47:56.852Z,40.92
2019-02-02T20:50:25.529Z,42.13
2019-02-02T20:52:54.421Z,44.48
2019-02-02T20:55:29.084Z,51.00
2019-02-02T20:58:03.755Z,50.20
2019-02-02T21:00:32.363Z,38.75
2019-02-02T21:03:01.147Z,43.80
2019-02-02T21:05:31.873Z,38.60
2019-02-02T21:08:00.190Z,40.67
2019-02-02T21:10:29.037Z,43.65
2019-02-02T21:12:57.745Z,48.52
2019-02-02T21:15:26.413Z,47.70
2019-02-02T21:17:55.291Z,47.40
2019-02-02T21:20:29.246Z,49.13
2019-02-02T21:22:59.848Z,50.43
2019-02-02T21:25:28.614Z,44.20
2019-02-02T21:27:57.306Z,36.15
2019-02-02T21:30:29.257Z,38.50
2019-02-02T21:32:57.841Z,44.33
2019-02-02T21:35:26.564Z,35.13
2019-02-02T21:37:55.414Z,43.78
2019-02-02T21:40:26.789Z,42.88
2019-02-02T21:42:55.518Z,38.70
2019-02-02T21:45:24.347Z,38.95
2019-02-02T21:47:53.603Z,41.73
2019-02-02T21:50:41.670Z,34.40
2019-02-02T21:53:10.539Z,39.00
2019-02-02T21:55:39.230Z,42.43
2019-02-02T21:58:08.450Z,39.15
2019-02-02T22:00:58.620Z,40.03
2019-02-02T22:03:27.528Z,40.03
2019-02-02T22:05:56.422Z,46.63
2019-02-02T22:08:25.648Z,44.03
2019-02-02T22:10:54.808Z,42.80
2019-02-02T22:13:23.699Z,33.50
2019-02-02T22:15:52.481Z,41.18
2019-02-02T22:18:21.938Z,39.38
2019-02-02T22:20:51.067Z,42.20
2019-02-02T22:23:20.002Z,43.70
2019-02-02T22:25:49.176Z,45.80
2019-02-02T22:28:18.249Z,41.63
2019-02-02T22:30:47.168Z,37.98
2019-02-02T22:33:16.660Z,42.15
2019-02-02T22:35:45.844Z,45.75
2019-02-02T22:38:14.860Z,43.78
2019-02-02T22:40:43.876Z,42.88
2019-02-02T22:43:12.857Z,40.43
2019-02-02T22:45:41.750Z,43.55
2019-02-02T22:48:11.160Z,48.87
2019-02-02T22:50:40.258Z,49.73
2019-02-02T22:53:09.219Z,48.87
2019-02-02T22:55:38.228Z,44.42
2019-02-02T22:58:06.980Z,41.25
2019-02-02T23:00:52.480Z,43.70
2019-02-02T23:03:27.497Z,42.05
2019-02-02T23:06:19.432Z,44.33
2019-02-02T23:09:16.069Z,47.62
2019-02-02T23:12:05.158Z,47.20
2019-02-02T23:14:56.660Z,48.68
2019-02-02T23:17:25.659Z,51.63
2019-02-02T23:19:54.577Z,47.35
2019-02-02T23:22:23.458Z,42.00
2019-02-02T23:24:52.423Z,49.30
2019-02-02T23:27:21.466Z,34.58
2019-02-02T23:29:50.321Z,44.73
2019-02-02T23:32:19.487Z,43.55
2019-02-02T23:34:48.620Z,46.00
2019-02-02T23:37:17.696Z,46.28
2019-02-02T23:39:46.700Z,44.98
2019-02-02T23:42:15.471Z,45.30
2019-02-02T23:44:44.290Z,45.65
2019-02-02T23:47:13.353Z,41.40
2019-02-02T23:49:42.260Z,44.80
2019-02-02T23:52:11.249Z,42.62
2019-02-02T23:54:40.386Z,67.37
2019-02-02T23:57:09.460Z,43.78
2019-02-02T23:59:38.345Z,50.73
